Time;durP1;ratioP1;P1;durP2;ratioP2;P2;SDS_P1;SDS_P2;PMS_P1;PMS_P2;Temp;Humidity;BMP_temperature;BMP_pressure;BME280_temperature;BME280_humidity;BME280_pressure;Samples;Min_cycle;Max_cycle;Signal;HPM_P1;HPM_P2
2023/04/12 00:01:05;;;;;;;7.05;1.65;;;;;;;4.47;100.00;92473.31;2090532;28;20101;-89
2023/04/12 00:02:44;;;;;;;3.92;1.60;;;;;;;4.48;100.00;92470.28;2076408;28;20068;-87
2023/04/12 00:04:16;;;;;;;4.63;1.73;;;;;;;4.60;100.00;92460.34;2078590;28;20117;-87
2023/04/12 00:05:33;;;;;;;5.85;1.70;;;;;;;4.57;100.00;92463.78;2082586;28;20036;-87
2023/04/12 00:06:55;;;;;;;6.78;2.10;;;;;;;4.52;100.00;92464.94;2085551;28;20026;-83
2023/04/12 00:08:32;;;;;;;7.40;1.88;;;;;;;4.58;100.00;92462.63;2097913;28;20043;-84
2023/04/12 00:09:36;;;;;;;5.38;2.33;;;;;;;4.55;100.00;92459.63;2081761;28;20033;-86
2023/04/12 00:10:41;;;;;;;6.20;2.00;;;;;;;4.49;100.00;92453.25;2067313;28;20498;-87
2023/04/12 00:11:48;;;;;;;7.05;1.80;;;;;;;4.44;100.00;92453.69;2069649;28;20736;-84
2023/04/12 00:12:50;;;;;;;5.05;2.10;;;;;;;4.46;100.00;92451.38;2065663;28;20037;-86
2023/04/12 00:14:05;;;;;;;6.05;2.08;;;;;;;4.49;100.00;92447.22;2062879;28;20081;-86
2023/04/12 00:15:33;;;;;;;6.25;1.83;;;;;;;4.61;100.00;92438.00;2082440;28;20037;-86
2023/04/12 00:16:49;;;;;;;7.45;2.08;;;;;;;4.52;100.00;92439.25;2078482;28;20485;-85
2023/04/12 00:18:06;;;;;;;4.85;1.67;;;;;;;4.44;100.00;92429.88;2070795;28;20091;-86
2023/04/12 00:19:34;;;;;;;5.82;1.88;;;;;;;4.46;100.00;92422.28;2062588;28;20896;-86
2023/04/12 00:20:35;;;;;;;5.03;1.73;;;;;;;4.47;100.00;92429.06;2072428;28;20028;-86
2023/04/12 00:22:06;;;;;;;6.68;2.13;;;;;;;4.43;100.00;92433.66;2086295;28;20047;-85
2023/04/12 00:23:22;;;;;;;3.78;1.92;;;;;;;4.48;100.00;92429.84;2082566;28;20079;-85
2023/04/12 00:24:28;;;;;;;7.05;2.00;;;;;;;4.47;100.00;92429.06;2075939;28;20030;-85
2023/04/12 00:25:56;;;;;;;5.97;2.38;;;;;;;4.44;100.00;92435.16;2066010;28;20034;-87
2023/04/12 00:27:00;;;;;;;4.03;1.70;;;;;;;4.48;100.00;92425.28;2067846;28;20080;-87
2023/04/12 00:28:07;;;;;;;7.28;1.77;;;;;;;4.52;100.00;92431.31;2077246;28;20470;-84
2023/04/12 00:29:08;;;;;;;6.20;2.00;;;;;;;4.51;100.00;92419.19;2080055;28;20029;-87
2023/04/12 00:30:11;;;;;;;6.25;1.85;;;;;;;4.77;100.00;92431.03;2080271;28;20035;-87
2023/04/12 00:31:12;;;;;;;6.00;2.75;;;;;;;4.59;100.00;92421.78;2080470;28;20029;-86
2023/04/12 00:32:14;;;;;;;5.57;2.13;;;;;;;4.50;100.00;92422.25;2081224;28;20585;-87
2023/04/12 00:33:15;;;;;;;6.95;2.33;;;;;;;4.47;100.00;92425.66;2080669;28;20029;-88
2023/04/12 00:34:16;;;;;;;6.28;1.83;;;;;;;4.35;100.00;92426.94;2072559;28;20030;-83
2023/04/12 00:35:25;;;;;;;5.68;2.00;;;;;;;4.37;100.00;92419.34;2074051;28;20417;-86
2023/04/12 00:36:27;;;;;;;6.60;2.40;;;;;;;4.36;100.00;92419.75;2068366;28;20026;-86
2023/04/12 00:37:28;;;;;;;4.82;1.75;;;;;;;4.34;100.00;92422.03;2064774;28;20089;-86
2023/04/12 00:38:34;;;;;;;6.22;1.95;;;;;;;4.24;100.00;92424.38;2064975;28;20037;-84
2023/04/12 00:39:43;;;;;;;5.30;2.20;;;;;;;4.27;100.00;92417.56;2069494;28;20026;-84
2023/04/12 00:40:46;;;;;;;5.60;2.53;;;;;;;4.41;100.00;92408.75;2077311;28;20029;-87
2023/04/12 00:41:55;;;;;;;4.75;1.80;;;;;;;4.41;100.00;92412.13;2071482;28;20493;-86
2023/04/12 00:42:57;;;;;;;4.65;1.98;;;;;;;4.43;100.00;92403.78;2097449;28;20016;-85
2023/04/12 00:44:06;;;;;;;6.65;2.00;;;;;;;4.41;100.00;92392.88;2093444;28;20026;-85
2023/04/12 00:45:13;;;;;;;2.78;1.90;;;;;;;4.41;100.00;92403.44;2078897;28;20029;-87
2023/04/12 00:46:16;;;;;;;3.47;1.77;;;;;;;4.33;100.00;92404.66;2076544;28;20165;-84
2023/04/12 00:47:19;;;;;;;5.65;2.03;;;;;;;4.17;100.00;92403.31;2068622;28;20493;-85
2023/04/12 00:48:30;;;;;;;4.72;1.88;;;;;;;4.32;100.00;92401.25;2068211;28;20022;-84
2023/04/12 00:49:36;;;;;;;6.05;1.80;;;;;;;4.27;100.00;92404.34;2080074;28;20033;-85
2023/04/12 00:50:50;;;;;;;6.22;1.90;;;;;;;4.34;100.00;92396.31;2078770;28;20029;-86
2023/04/12 00:51:51;;;;;;;7.63;2.35;;;;;;;4.38;100.00;92391.75;2076424;28;20032;-87
2023/04/12 00:52:57;;;;;;;4.75;1.75;;;;;;;4.41;100.00;92392.88;2080489;28;20017;-86
2023/04/12 00:54:00;;;;;;;4.75;1.90;;;;;;;4.33;100.00;92394.06;2086406;28;20504;-85
2023/04/12 00:55:09;;;;;;;7.45;1.90;;;;;;;4.30;100.00;92382.38;2074241;28;20064;-86
2023/04/12 00:56:16;;;;;;;3.33;1.70;;;;;;;4.33;100.00;92386.13;2074758;28;20484;-85
2023/04/12 00:57:23;;;;;;;6.22;2.28;;;;;;;4.37;100.00;92389.50;2089265;28;20116;-86
2023/04/12 00:58:30;;;;;;;6.93;1.80;;;;;;;4.33;100.00;92386.88;2080424;28;20026;-85
2023/04/12 00:59:37;;;;;;;6.55;1.95;;;;;;;4.37;100.00;92389.50;2065418;28;20034;-86
2023/04/12 01:00:49;;;;;;;8.38;1.98;;;;;;;4.28;100.00;92387.31;2063921;28;20383;-85
2023/04/12 01:01:58;;;;;;;5.05;1.77;;;;;;;4.31;100.00;92385.78;2082212;28;20080;-85
2023/04/12 01:03:12;;;;;;;5.88;2.20;;;;;;;4.35;100.00;92381.97;2075902;28;20445;-85
2023/04/12 01:04:21;;;;;;;4.97;2.05;;;;;;;4.30;100.00;92379.72;2075285;28;20160;-85
2023/04/12 01:05:45;;;;;;;7.28;2.17;;;;;;;4.42;100.00;92381.13;2078760;28;20043;-85
2023/04/12 01:07:23;;;;;;;5.45;2.28;;;;;;;4.41;100.00;92377.72;2090713;28;20134;-85
2023/04/12 01:08:48;;;;;;;5.18;2.17;;;;;;;4.51;100.00;92371.56;2072591;28;20104;-85
2023/04/12 01:09:56;;;;;;;5.95;2.17;;;;;;;4.45;100.00;92373.16;2091258;28;20102;-85
2023/04/12 01:11:00;;;;;;;4.60;2.10;;;;;;;4.45;100.00;92367.13;2079831;28;20413;-86
2023/04/12 01:12:48;;;;;;;6.80;2.25;;;;;;;4.48;100.00;92363.69;2080132;28;20061;-86
2023/04/12 01:14:12;;;;;;;7.55;2.15;;;;;;;4.38;100.00;92360.00;2082038;28;20039;-86
2023/04/12 01:15:15;;;;;;;7.28;2.00;;;;;;;4.36;100.00;92362.28;2082400;28;20045;-86
2023/04/12 01:16:43;;;;;;;8.05;2.50;;;;;;;4.38;100.00;92360.00;2082192;28;20029;-85
2023/04/12 01:18:16;;;;;;;5.20;2.20;;;;;;;4.38;100.00;92353.97;2100781;28;20498;-86
2023/04/12 01:20:00;;;;;;;8.10;2.25;;;;;;;4.40;100.00;92363.00;2086910;28;20460;-85
2023/04/12 01:21:08;;;;;;;8.75;2.50;;;;;;;4.36;100.00;92350.97;2061652;28;20430;-86
2023/04/12 01:22:25;;;;;;;5.22;2.30;;;;;;;4.37;100.00;92347.16;2086713;28;20374;-86
2023/04/12 01:24:12;;;;;;;3.38;2.15;;;;;;;4.33;100.00;92341.16;2076957;28;20040;-85
2023/04/12 01:25:25;;;;;;;5.82;2.10;;;;;;;4.51;100.00;92350.41;2076867;28;20030;-86
2023/04/12 01:26:47;;;;;;;4.25;2.53;;;;;;;4.48;100.00;92342.53;2066977;28;20057;-85
2023/04/12 01:27:50;;;;;;;7.70;2.40;;;;;;;4.36;100.00;92337.75;2078691;28;20160;-84
2023/04/12 01:28:53;;;;;;;9.32;2.58;;;;;;;4.53;100.00;92342.09;2072629;28;20026;-86
2023/04/12 01:29:57;;;;;;;7.03;2.50;;;;;;;4.43;100.00;92335.75;2072168;28;20686;-86
2023/04/12 01:31:02;;;;;;;6.70;2.80;;;;;;;4.37;100.00;92339.22;2075077;28;20029;-84
2023/04/12 01:32:04;;;;;;;4.57;2.60;;;;;;;4.32;100.00;92337.78;2084474;28;20017;-84
2023/04/12 01:33:09;;;;;;;7.47;2.80;;;;;;;4.27;100.00;92332.91;2078634;28;20021;-82
2023/04/12 01:34:14;;;;;;;9.23;2.90;;;;;;;4.40;100.00;92325.97;2070875;28;20515;-85
2023/04/12 01:35:18;;;;;;;5.60;2.70;;;;;;;4.35;100.00;92323.03;2075478;28;20053;-84
2023/04/12 01:36:22;;;;;;;7.95;2.58;;;;;;;4.25;100.00;92321.97;2067745;28;20029;-85
2023/04/12 01:37:23;;;;;;;4.35;2.30;;;;;;;4.27;100.00;92319.69;2077044;28;20028;-85
2023/04/12 01:38:25;;;;;;;6.00;2.80;;;;;;;4.27;100.00;92312.50;2087592;28;20025;-85
2023/04/12 01:39:29;;;;;;;5.97;3.22;;;;;;;4.46;100.00;92313.78;2091713;28;20479;-82
2023/04/12 01:40:34;;;;;;;8.30;2.70;;;;;;;4.36;100.00;92314.69;2095172;28;20027;-86
2023/04/12 01:41:44;;;;;;;7.60;2.70;;;;;;;4.37;100.00;92307.50;2078927;28;20417;-84
2023/04/12 01:42:45;;;;;;;5.95;2.35;;;;;;;4.22;100.00;92306.91;2077801;28;20473;-84
2023/04/12 01:43:47;;;;;;;6.22;2.92;;;;;;;4.21;100.00;92313.31;2073011;28;20053;-86
2023/04/12 01:44:49;;;;;;;6.88;2.80;;;;;;;4.19;100.00;92297.84;2071219;28;20030;-86
2023/04/12 01:45:50;;;;;;;5.93;2.95;;;;;;;4.18;100.00;92298.25;2071775;28;20030;-84
2023/04/12 01:46:51;;;;;;;10.68;2.75;;;;;;;4.20;100.00;92298.59;2063572;28;20094;-83
2023/04/12 01:47:52;;;;;;;5.25;2.92;;;;;;;4.20;100.00;92296.69;2079637;28;20039;-85
2023/04/12 01:48:57;;;;;;;9.90;3.10;;;;;;;4.13;100.00;92298.69;2079897;28;20087;-88
2023/04/12 01:50:16;;;;;;;12.00;3.20;;;;;;;4.20;100.00;92290.66;2066404;28;20033;-84
2023/04/12 01:51:41;;;;;;;6.35;2.80;;;;;;;4.22;100.00;92293.69;2079688;28;20025;-85
2023/04/12 01:52:53;;;;;;;8.48;2.83;;;;;;;4.27;100.00;92286.06;2076991;28;20028;-85
2023/04/12 01:54:01;;;;;;;7.55;2.90;;;;;;;4.46;100.00;92279.41;2073030;28;20378;-85
2023/04/12 01:55:06;;;;;;;5.80;2.90;;;;;;;4.39;100.00;92278.72;2069984;28;20022;-85
2023/04/12 01:56:08;;;;;;;8.20;2.72;;;;;;;4.35;100.00;92270.84;2079484;28;20025;-85
2023/04/12 01:57:11;;;;;;;6.38;3.05;;;;;;;4.29;100.00;92275.06;2071082;28;20033;-84
2023/04/12 01:58:19;;;;;;;5.85;2.88;;;;;;;4.23;100.00;92266.81;2071514;28;20064;-83
2023/04/12 01:59:23;;;;;;;6.63;2.80;;;;;;;4.25;100.00;92266.44;2072262;28;20482;-86
2023/04/12 02:00:27;;;;;;;5.82;2.90;;;;;;;4.35;100.00;92260.28;2072114;28;20076;-83
2023/04/12 02:01:30;;;;;;;8.15;2.60;;;;;;;4.28;100.00;92258.44;2085681;28;20136;-84
2023/04/12 02:02:31;;;;;;;5.75;2.85;;;;;;;4.23;100.00;92258.16;2095957;28;20032;-85
2023/04/12 02:03:33;;;;;;;6.85;3.10;;;;;;;4.22;100.00;92251.38;2080033;28;20053;-85
2023/04/12 02:04:35;;;;;;;7.75;3.03;;;;;;;4.21;100.00;92252.50;2075428;28;20032;-85
2023/04/12 02:05:38;;;;;;;9.05;2.80;;;;;;;4.23;100.00;92255.50;2083889;28;20033;-83
2023/04/12 02:06:42;;;;;;;12.02;3.92;;;;;;;4.11;100.00;92245.44;2087389;28;20051;-84
2023/04/12 02:07:45;;;;;;;7.57;2.85;;;;;;;4.18;100.00;92250.66;2079713;28;20029;-85
2023/04/12 02:08:47;;;;;;;8.45;3.10;;;;;;;4.19;100.00;92249.50;2079069;28;20507;-85
2023/04/12 02:09:48;;;;;;;8.32;3.00;;;;;;;4.18;100.00;92250.66;2075630;28;20025;-84
2023/04/12 02:10:51;;;;;;;9.38;3.55;;;;;;;4.23;100.00;92247.56;2080275;28;20467;-85
2023/04/12 02:11:55;;;;;;;7.00;3.20;;;;;;;4.21;100.00;92245.31;2080711;28;20044;-87
2023/04/12 02:13:02;;;;;;;8.05;2.90;;;;;;;4.25;100.00;92243.38;2083899;28;20028;-83
2023/04/12 02:14:04;;;;;;;6.65;3.35;;;;;;;4.21;100.00;92242.66;2076025;28;20029;-84
2023/04/12 02:15:07;;;;;;;7.10;2.90;;;;;;;4.25;100.00;92240.72;2071475;28;20029;-84
2023/04/12 02:16:09;;;;;;;5.35;3.13;;;;;;;4.21;100.00;92241.91;2064034;28;20471;-85
2023/04/12 02:17:12;;;;;;;6.35;3.08;;;;;;;4.30;100.00;92239.53;2069484;28;20116;-86
2023/04/12 02:18:16;;;;;;;8.88;3.13;;;;;;;4.41;100.00;92232.22;2073531;28;20029;-83
2023/04/12 02:19:18;;;;;;;7.57;3.30;;;;;;;4.30;100.00;92231.59;2075841;28;20469;-85
2023/04/12 02:20:23;;;;;;;8.60;3.70;;;;;;;4.23;100.00;92235.09;2067541;28;20148;-85
2023/04/12 02:21:27;;;;;;;9.63;3.53;;;;;;;4.24;100.00;92233.19;2075431;28;20032;-86
2023/04/12 02:22:28;;;;;;;7.75;3.05;;;;;;;4.27;100.00;92224.47;2079732;28;20484;-86
2023/04/12 02:23:32;;;;;;;7.03;3.38;;;;;;;4.29;100.00;92230.84;2076121;28;20468;-85
2023/04/12 02:24:33;;;;;;;5.78;3.20;;;;;;;4.41;100.00;92221.63;2074697;28;20026;-87
2023/04/12 02:25:40;;;;;;;10.00;3.63;;;;;;;4.31;100.00;92224.44;2075522;28;20026;-85
2023/04/12 02:26:41;;;;;;;8.43;3.42;;;;;;;4.27;100.00;92214.63;2077229;28;20037;-83
2023/04/12 02:27:45;;;;;;;6.57;3.40;;;;;;;4.22;100.00;92212.44;2071113;28;20478;-85
2023/04/12 02:28:46;;;;;;;9.57;3.70;;;;;;;4.19;100.00;92215.13;2072194;28;20080;-85
2023/04/12 02:29:47;;;;;;;5.25;3.38;;;;;;;4.13;100.00;92206.88;2075072;28;20026;-85
2023/04/12 02:30:52;;;;;;;14.52;3.88;;;;;;;4.21;100.00;92212.81;2071059;28;20064;-85
2023/04/12 02:31:53;;;;;;;8.98;3.88;;;;;;;4.23;100.00;92206.00;2073175;28;20033;-85
2023/04/12 02:32:55;;;;;;;8.23;3.58;;;;;;;4.12;100.00;92202.72;2071418;28;20026;-87
2023/04/12 02:33:56;;;;;;;7.93;3.53;;;;;;;4.13;100.00;92212.19;2071076;28;20029;-85
2023/04/12 02:34:59;;;;;;;6.75;3.13;;;;;;;4.14;100.00;92202.34;2073456;28;20440;-85
2023/04/12 02:36:06;;;;;;;8.52;4.40;;;;;;;4.19;100.00;92205.28;2095287;28;20039;-85
2023/04/12 02:37:08;;;;;;;7.88;3.35;;;;;;;4.21;100.00;92200.34;2083561;28;20069;-85
2023/04/12 02:38:09;;;;;;;4.32;3.25;;;;;;;4.20;100.00;92201.50;2075068;28;20029;-84
2023/04/12 02:39:10;;;;;;;6.75;3.47;;;;;;;4.19;100.00;92194.72;2075548;28;20026;-85
2023/04/12 02:40:16;;;;;;;8.88;3.55;;;;;;;4.23;100.00;92202.59;2083273;28;20509;-84
2023/04/12 02:41:20;;;;;;;9.73;3.85;;;;;;;4.21;100.00;92202.25;2084662;28;20053;-85
2023/04/12 02:42:22;;;;;;;6.57;3.33;;;;;;;4.30;100.00;92199.84;2083896;28;20037;-85
2023/04/12 02:43:23;;;;;;;7.70;3.55;;;;;;;4.29;100.00;92190.41;2071178;28;20113;-85
2023/04/12 02:44:23;;;;;;;8.57;3.70;;;;;;;4.37;100.00;92193.72;2070917;28;20484;-83
2023/04/12 02:45:25;;;;;;;8.27;3.47;;;;;;;4.23;100.00;92192.78;2065200;28;20100;-85
2023/04/12 02:46:26;;;;;;;14.93;4.30;;;;;;;4.28;100.00;92191.56;2076814;28;20381;-86
2023/04/12 02:47:28;;;;;;;5.68;3.78;;;;;;;4.26;100.00;92191.97;2074657;28;20509;-85
2023/04/12 02:48:30;;;;;;;6.93;3.30;;;;;;;4.35;100.00;92188.09;2072159;28;20046;-85
2023/04/12 02:49:31;;;;;;;8.90;3.70;;;;;;;4.36;100.00;92187.69;2075674;28;20037;-85
2023/04/12 02:50:33;;;;;;;9.88;3.58;;;;;;;4.45;100.00;92182.66;2076440;28;20057;-86
2023/04/12 02:51:34;;;;;;;8.32;3.63;;;;;;;4.36;100.00;92182.41;2079565;28;20029;-85
2023/04/12 02:52:35;;;;;;;10.02;3.80;;;;;;;4.48;100.00;92178.47;2074102;28;20033;-85
2023/04/12 02:53:38;;;;;;;6.28;3.25;;;;;;;4.37;100.00;92177.84;2063102;28;20029;-86
2023/04/12 02:54:40;;;;;;;6.47;3.53;;;;;;;4.35;100.00;92178.25;2065763;28;20029;-87
2023/04/12 02:55:41;;;;;;;9.48;3.83;;;;;;;4.46;100.00;92176.22;2076091;28;20040;-85
2023/04/12 02:56:42;;;;;;;11.73;4.07;;;;;;;4.31;100.00;92177.56;2078628;28;20038;-85
2023/04/12 02:57:45;;;;;;;6.57;3.47;;;;;;;4.31;100.00;92174.16;2079657;28;20428;-85
2023/04/12 02:58:46;;;;;;;8.48;3.83;;;;;;;4.25;100.00;92174.59;2091592;28;20094;-86
2023/04/12 02:59:47;;;;;;;7.47;3.38;;;;;;;4.28;100.00;92173.81;2084303;28;20077;-86
2023/04/12 03:00:49;;;;;;;11.00;3.83;;;;;;;4.29;100.00;92183.22;2091840;28;20025;-86
2023/04/12 03:01:50;;;;;;;5.78;3.30;;;;;;;4.35;100.00;92174.88;2083572;28;20091;-86
2023/04/12 03:02:51;;;;;;;12.43;4.35;;;;;;;4.27;100.00;92179.50;2072432;28;20030;-84
2023/04/12 03:03:53;;;;;;;8.63;3.40;;;;;;;4.26;100.00;92168.19;2075766;28;20033;-87
2023/04/12 03:04:55;;;;;;;10.05;3.72;;;;;;;4.43;100.00;92165.66;2083635;28;20048;-85
2023/04/12 03:05:57;;;;;;;6.07;3.30;;;;;;;4.33;100.00;92171.88;2075703;28;20025;-84
2023/04/12 03:07:00;;;;;;;6.90;3.53;;;;;;;4.31;100.00;92169.63;2083328;28;20116;-83
2023/04/12 03:08:02;;;;;;;5.57;3.75;;;;;;;4.31;100.00;92174.91;2084172;28;20037;-85
2023/04/12 03:09:03;;;;;;;10.68;3.78;;;;;;;4.46;100.00;92176.22;2083872;28;20025;-85
2023/04/12 03:10:06;;;;;;;10.63;4.32;;;;;;;4.29;100.00;92172.66;2068333;28;20022;-85
2023/04/12 03:11:07;;;;;;;7.93;3.70;;;;;;;4.22;100.00;92170.13;2068794;28;20014;-87
2023/04/12 03:12:09;;;;;;;6.72;4.00;;;;;;;4.19;100.00;92168.25;2084216;28;20032;-86
2023/04/12 03:13:11;;;;;;;9.48;4.07;;;;;;;4.27;100.00;92168.94;2082020;28;20032;-84
2023/04/12 03:14:12;;;;;;;7.25;3.75;;;;;;;4.45;100.00;92173.97;2081279;28;20036;-87
2023/04/12 03:15:14;;;;;;;9.75;4.38;;;;;;;4.37;100.00;92167.28;2083477;28;20053;-87
2023/04/12 03:16:24;;;;;;;6.68;3.78;;;;;;;4.31;100.00;92166.22;2075837;28;20029;-87
2023/04/12 03:17:26;;;;;;;5.70;3.58;;;;;;;4.20;100.00;92164.47;2076888;28;20448;-85
2023/04/12 03:18:27;;;;;;;5.63;3.35;;;;;;;4.17;100.00;92151.28;2079408;28;20033;-84
2023/04/12 03:19:31;;;;;;;6.68;3.67;;;;;;;4.32;100.00;92159.78;2079674;28;20497;-87
2023/04/12 03:20:33;;;;;;;8.68;3.45;;;;;;;4.18;100.00;92155.44;2076880;28;20465;-85
2023/04/12 03:21:36;;;;;;;4.10;3.70;;;;;;;4.32;100.00;92149.22;2075022;28;20052;-86
2023/04/12 03:22:37;;;;;;;7.93;3.58;;;;;;;4.24;100.00;92145.91;2086935;28;20029;-85
2023/04/12 03:23:38;;;;;;;11.25;4.00;;;;;;;4.24;100.00;92149.28;2079722;28;20061;-85
2023/04/12 03:24:41;;;;;;;8.75;3.65;;;;;;;4.23;100.00;92145.16;2081093;28;20030;-85
2023/04/12 03:25:44;;;;;;;6.38;3.55;;;;;;;4.14;100.00;92138.88;2094975;28;20127;-86
2023/04/12 03:26:46;;;;;;;8.82;4.40;;;;;;;4.21;100.00;92146.69;2100858;28;20035;-84
2023/04/12 03:27:52;;;;;;;7.07;3.50;;;;;;;4.16;100.00;92142.59;2092481;28;20227;-84
2023/04/12 03:28:57;;;;;;;6.70;3.75;;;;;;;4.21;100.00;92136.13;2076981;28;20022;-86
2023/04/12 03:29:58;;;;;;;5.72;3.50;;;;;;;4.20;100.00;92137.28;2071511;28;20121;-85
2023/04/12 03:30:59;;;;;;;9.02;3.42;;;;;;;4.28;100.00;92133.38;2077148;28;20112;-86
2023/04/12 03:32:03;;;;;;;9.02;3.90;;;;;;;4.30;100.00;92133.72;2072496;28;20047;-85
2023/04/12 03:33:05;;;;;;;8.50;4.60;;;;;;;4.20;100.00;92132.72;2080014;28;20037;-85
2023/04/12 03:34:07;;;;;;;9.52;4.18;;;;;;;4.18;100.00;92126.34;2082966;28;20029;-85
2023/04/12 03:35:16;;;;;;;4.93;3.67;;;;;;;4.19;100.00;92125.94;2091263;28;20029;-85
2023/04/12 03:36:17;;;;;;;20.50;14.45;;;;;;;4.17;100.00;92128.25;2082825;28;20482;-84
2023/04/12 03:37:18;;;;;;;10.10;7.00;;;;;;;4.22;100.00;92125.16;2079475;28;20090;-86
2023/04/12 03:38:20;;;;;;;9.98;4.65;;;;;;;4.23;100.00;92128.56;2080175;28;20079;-86
2023/04/12 03:39:21;;;;;;;8.75;4.03;;;;;;;4.20;100.00;92121.41;2079220;28;20018;-85
2023/04/12 03:40:22;;;;;;;7.03;3.72;;;;;;;4.18;100.00;92123.72;2087899;28;20025;-85
2023/04/12 03:41:25;;;;;;;7.13;3.45;;;;;;;4.14;100.00;92112.44;2077880;28;20081;-88
2023/04/12 03:42:31;;;;;;;5.47;4.15;;;;;;;4.13;100.00;92124.16;2072754;28;20076;-85
2023/04/12 03:43:34;;;;;;;7.47;3.80;;;;;;;4.14;100.00;92115.06;2073779;28;20088;-88
2023/04/12 03:44:36;;;;;;;8.65;3.97;;;;;;;4.18;100.00;92108.59;2080948;28;20021;-86
2023/04/12 03:45:39;;;;;;;6.20;4.85;;;;;;;4.17;100.00;92108.97;2080947;28;20033;-86
2023/04/12 03:46:41;;;;;;;7.32;3.80;;;;;;;4.20;100.00;92097.59;2078801;28;20021;-87
2023/04/12 03:47:42;;;;;;;5.65;3.90;;;;;;;4.16;100.00;92107.47;2068083;28;20034;-84
2023/04/12 03:48:43;;;;;;;9.95;4.45;;;;;;;4.10;100.00;92099.25;2076532;28;20044;-86
2023/04/12 03:49:46;;;;;;;9.45;4.35;;;;;;;4.18;100.00;92091.97;2077057;28;20032;-85
2023/04/12 03:50:47;;;;;;;9.20;4.30;;;;;;;4.17;100.00;92093.09;2079379;28;20018;-86
2023/04/12 03:51:51;;;;;;;7.13;4.70;;;;;;;4.10;100.00;92087.94;2068852;28;20034;-86
2023/04/12 03:52:53;;;;;;;9.77;4.97;;;;;;;4.12;100.00;92094.31;2087130;28;20021;-85
2023/04/12 03:53:57;;;;;;;9.25;4.38;;;;;;;4.19;100.00;92088.91;2085837;28;20029;-86
2023/04/12 03:55:04;;;;;;;9.90;4.53;;;;;;;4.13;100.00;92085.25;2074595;28;20102;-86
2023/04/12 03:56:07;;;;;;;7.57;4.22;;;;;;;4.08;100.00;92083.03;2082647;28;20052;-86
2023/04/12 03:57:09;;;;;;;6.85;4.85;;;;;;;4.14;100.00;92078.06;2065619;28;20175;-86
2023/04/12 03:58:15;;;;;;;8.45;4.40;;;;;;;4.13;100.00;92077.31;2063830;28;20450;-88
2023/04/12 03:59:16;;;;;;;9.75;4.80;;;;;;;4.19;100.00;92077.59;2080764;28;20102;-87
2023/04/12 04:00:17;;;;;;;6.88;4.85;;;;;;;4.19;100.00;92070.41;2081823;28;20035;-85
2023/04/12 04:01:20;;;;;;;6.95;4.65;;;;;;;4.13;100.00;92066.72;2076636;28;20517;-86
2023/04/12 04:02:21;;;;;;;9.63;5.18;;;;;;;4.15;100.00;92075.00;2073278;28;20034;-85
2023/04/12 04:03:25;;;;;;;8.43;4.60;;;;;;;4.22;100.00;92063.59;2072525;28;20077;-86
2023/04/12 04:04:27;;;;;;;6.45;4.30;;;;;;;4.16;100.00;92060.63;2073854;28;20037;-88
2023/04/12 04:05:29;;;;;;;8.73;4.82;;;;;;;4.20;100.00;92069.25;2073340;28;20032;-88
2023/04/12 04:06:33;;;;;;;7.50;5.03;;;;;;;4.21;100.00;92064.72;2077657;28;20135;-87
2023/04/12 04:07:35;;;;;;;9.32;5.03;;;;;;;4.20;100.00;92061.31;2076937;28;20038;-88
2023/04/12 04:08:41;;;;;;;7.97;4.75;;;;;;;4.19;100.00;92059.09;2083702;28;20473;-86
2023/04/12 04:09:42;;;;;;;8.23;4.63;;;;;;;4.17;100.00;92059.50;2076943;28;20037;-87
2023/04/12 04:10:45;;;;;;;9.32;4.85;;;;;;;4.19;100.00;92054.53;2084678;28;20118;-86
2023/04/12 04:11:49;;;;;;;10.07;5.90;;;;;;;4.15;100.00;92051.19;2084085;28;20037;-88
2023/04/12 04:12:50;;;;;;;9.02;6.05;;;;;;;4.12;100.00;92056.53;2075849;28;20033;-88
2023/04/12 04:13:52;;;;;;;6.50;5.18;;;;;;;4.15;100.00;92059.13;2068313;28;20125;-88
2023/04/12 04:14:55;;;;;;;9.15;5.55;;;;;;;4.18;100.00;92054.94;2076831;28;20524;-88
2023/04/12 04:16:05;;;;;;;7.35;4.57;;;;;;;4.17;100.00;92051.56;2069066;28;20118;-89
2023/04/12 04:17:06;;;;;;;8.02;5.25;;;;;;;4.22;100.00;92051.09;2083682;28;20115;-86
2023/04/12 04:18:08;;;;;;;6.97;5.53;;;;;;;4.25;100.00;92057.47;2090749;28;20048;-87
2023/04/12 04:19:10;;;;;;;10.40;5.18;;;;;;;4.22;100.00;92058.28;2093050;28;20017;-85
2023/04/12 04:20:13;;;;;;;14.00;5.65;;;;;;;4.22;100.00;92055.66;2087441;28;20022;-88
2023/04/12 04:21:14;;;;;;;8.75;5.00;;;;;;;4.41;100.00;92056.84;2086505;28;20119;-87
2023/04/12 04:22:16;;;;;;;10.05;5.00;;;;;;;4.37;100.00;92048.97;2079176;28;20022;-87
2023/04/12 04:23:17;;;;;;;7.22;5.03;;;;;;;4.38;100.00;92053.09;2091291;28;20056;-86
2023/04/12 04:24:21;;;;;;;9.00;4.82;;;;;;;4.29;100.00;92053.63;2103512;28;20024;-88
2023/04/12 04:25:28;;;;;;;9.23;4.78;;;;;;;4.25;100.00;92052.19;2090947;28;20125;-87
2023/04/12 04:26:32;;;;;;;6.65;5.45;;;;;;;4.22;100.00;92045.81;2090232;28;20056;-87
2023/04/12 04:27:37;;;;;;;7.57;5.22;;;;;;;4.27;100.00;92049.91;2070103;28;20030;-89
2023/04/12 04:28:48;;;;;;;8.23;5.53;;;;;;;4.24;100.00;92051.44;2075531;28;20029;-89
2023/04/12 04:29:52;;;;;;;8.57;5.45;;;;;;;4.16;100.00;92049.31;2081456;28;20065;-86
2023/04/12 04:30:56;;;;;;;8.00;5.40;;;;;;;4.22;100.00;92040.53;2076955;28;20561;-86
2023/04/12 04:31:57;;;;;;;8.38;5.00;;;;;;;4.34;100.00;92041.84;2073092;28;20026;-86
2023/04/12 04:33:00;;;;;;;6.97;5.03;;;;;;;4.26;100.00;92038.56;2080525;28;20037;-86
2023/04/12 04:34:04;;;;;;;6.85;5.13;;;;;;;4.26;100.00;92035.19;2073175;28;20057;-86
2023/04/12 04:35:06;;;;;;;8.38;5.32;;;;;;;4.23;100.00;92041.28;2082618;28;20079;-87
2023/04/12 04:36:08;;;;;;;7.65;4.75;;;;;;;4.23;100.00;92042.00;2078458;28;20481;-87
2023/04/12 04:37:09;;;;;;;7.53;5.00;;;;;;;4.22;100.00;92035.22;2078574;28;20030;-85
2023/04/12 04:38:10;;;;;;;7.53;5.57;;;;;;;4.27;100.00;92031.38;2077096;28;20404;-87
2023/04/12 04:39:11;;;;;;;7.10;4.90;;;;;;;4.34;100.00;92027.88;2080580;28;20072;-89
2023/04/12 04:40:15;;;;;;;6.28;5.25;;;;;;;4.29;100.00;92024.53;2092914;28;20044;-87
2023/04/12 04:41:16;;;;;;;6.60;5.32;;;;;;;4.24;100.00;92032.19;2088868;28;20021;-88
2023/04/12 04:42:17;;;;;;;8.10;5.18;;;;;;;4.22;100.00;92029.19;2069750;28;20501;-88
2023/04/12 04:43:19;;;;;;;6.63;5.82;;;;;;;4.22;100.00;92026.56;2075227;28;20029;-87
2023/04/12 04:44:20;;;;;;;10.10;5.72;;;;;;;4.22;100.00;92029.94;2083756;28;20029;-89
2023/04/12 04:45:25;;;;;;;8.30;5.30;;;;;;;4.22;100.00;92026.56;2076727;28;20033;-86
2023/04/12 04:46:29;;;;;;;7.30;5.30;;;;;;;4.27;100.00;92026.09;2072241;28;20022;-88
2023/04/12 04:47:30;;;;;;;7.45;5.45;;;;;;;4.27;100.00;92026.09;2064907;28;20061;-85
2023/04/12 04:48:31;;;;;;;6.82;5.10;;;;;;;4.35;100.00;92013.50;2068374;28;20360;-85
2023/04/12 04:49:32;;;;;;;9.07;5.15;;;;;;;4.30;100.00;92014.69;2077366;28;20564;-87
2023/04/12 04:50:33;;;;;;;8.73;6.10;;;;;;;4.24;100.00;92027.63;2077672;28;20511;-88
2023/04/12 04:51:35;;;;;;;8.13;5.35;;;;;;;4.31;100.00;92026.78;2071895;28;20117;-88
2023/04/12 04:52:39;;;;;;;10.43;5.82;;;;;;;4.37;100.00;92027.81;2070544;28;20022;-87
2023/04/12 04:53:40;;;;;;;8.95;5.32;;;;;;;4.42;100.00;92030.00;2074442;28;20526;-88
2023/04/12 04:54:41;;;;;;;8.88;5.28;;;;;;;4.45;100.00;92025.81;2074406;28;20033;-87
2023/04/12 04:55:43;;;;;;;8.38;5.13;;;;;;;4.40;100.00;92028.91;2073908;28;20034;-87
2023/04/12 04:56:44;;;;;;;5.95;5.10;;;;;;;4.38;100.00;92024.00;2077318;28;20596;-88
2023/04/12 04:57:45;;;;;;;7.20;5.60;;;;;;;4.39;100.00;92035.34;2073719;28;20025;-88
2023/04/12 04:58:46;;;;;;;8.65;5.57;;;;;;;4.36;100.00;92028.97;2074056;28;20033;-86
2023/04/12 04:59:47;;;;;;;7.22;5.32;;;;;;;4.31;100.00;92023.41;2073471;28;20554;-88
2023/04/12 05:00:48;;;;;;;8.60;5.22;;;;;;;4.32;100.00;92020.34;2076799;28;20025;-89
2023/04/12 05:01:51;;;;;;;9.43;5.15;;;;;;;4.28;100.00;92020.38;2073666;28;20033;-89
2023/04/12 05:02:52;;;;;;;10.48;5.63;;;;;;;4.30;100.00;92027.91;2065856;28;20037;-89
2023/04/12 05:03:54;;;;;;;8.75;5.20;;;;;;;4.35;100.00;92014.25;2066397;28;20034;-88
2023/04/12 05:04:58;;;;;;;9.10;5.75;;;;;;;4.32;100.00;92022.25;2073824;28;20026;-87
2023/04/12 05:06:02;;;;;;;9.57;7.72;;;;;;;4.35;100.00;92019.53;2086485;28;20016;-87
2023/04/12 05:07:03;;;;;;;7.90;5.20;;;;;;;4.31;100.00;92018.84;2087958;28;20057;-85
2023/04/12 05:08:07;;;;;;;7.82;5.78;;;;;;;4.35;100.00;92018.81;2079791;28;20132;-82